Mike Weisend — WDF7611 — position and weather

sailwx.info

Track history (hours):
 
Tides and Currents Weather Stations Pressure Air Temp Water Temp Dewpoint Dewpoint Depression Visibility Wind Speed Wind Dir Waves Ship Positions

Mike Weisend

Owner: AEP River Operations LLC, Chesterfield, MO. More information available from US FCC via Universal Licensing System and Coast Guard Vessel Documentation Center.

Last reported at 2015-May-01 14:05 UTC. Time now 2015-May-06 00:22 UTC.
Position N 30°44' W 091°32'.

Length 54 m; draft 3 m.

Type: Towing. MMSI: 367486280.

Date/timePositionNaut miles runAvg speedWind from/ knotsBaromVisibWave heightAir tempDewpointWater temp
2015-May-01 14:05N 30°44' W 091°32'5 2.8
2015-May-01 12:15N 30°45' W 091°25'1 0.9
2015-May-01 11:07N 30°45' W 091°25'2 3.3
2015-May-01 10:33N 30°45' W 091°22'3 3.4
2015-May-01 09:33N 30°42' W 091°21'4 3.8
2015-May-01 08:33N 30°39' W 091°18'3 2.9
2015-May-01 07:33N 30°36' W 091°19'2 2.0
2015-May-01 06:33N 30°34' W 091°17'3 3.0
2015-May-01 05:34N 30°32' W 091°15'1 0.9
2015-May-01 04:33N 30°32' W 091°16'0 0.0
2015-May-01 03:33N 30°32' W 091°16'0 0.0
2015-May-01 02:34N 30°32' W 091°16'0 0.2
2015-May-01 01:33N 30°32' W 091°15'2 1.8
2015-May-01 00:33N 30°31' W 091°17'2 2.4
2015-Apr-30 23:34N 30°31' W 091°14'2 1.7
2015-Apr-30 22:33N 30°31' W 091°12'2 2.5
2015-Apr-30 21:34N 30°29' W 091°12'2 1.7
2015-Apr-30 20:33N 30°27' W 091°12'3 2.7
2015-Apr-30 19:33N 30°24' W 091°12'1 1.2
2015-Apr-30 18:33N 30°23' W 091°13'0 0.1
2015-Apr-30 17:32N 30°23' W 091°13'3 2.6
2015-Apr-30 16:33N 30°21' W 091°15'3 2.0
2015-Apr-30 15:06N 30°19' W 091°12'3 4.3
2015-Apr-30 14:28N 30°17' W 091°11'4 4.2
2015-Apr-30 13:33N 30°13' W 091°09'3 2.9
2015-Apr-30 12:33N 30°13' W 091°06'6 5.2
2015-Apr-30 11:23N 30°07' W 091°02'11 0.6
2015-Apr-29 17:21N 30°17' W 091°09'4 5.4
2015-Apr-29 16:32N 30°19' W 091°13'2 2.0
2015-Apr-29 15:32N 30°21' W 091°12'4 4.2
2015-Apr-29 14:34N 30°25' W 091°12'0 0.1
2015-Apr-29 13:34N 30°25' W 091°12'0 0.0
2015-Apr-29 12:34N 30°25' W 091°12'0 0.0
2015-Apr-29 11:33N 30°25' W 091°12'0 0.0
2015-Apr-29 10:33N 30°25' W 091°12'4 3.9
2015-Apr-29 09:34N 30°29' W 091°12'3 3.3
2015-Apr-29 08:33N 30°30' W 091°15'4 3.5
2015-Apr-29 07:33N 30°34' W 091°15'5 5.5
2015-Apr-29 06:33N 30°39' W 091°18'7 7.5
2015-Apr-29 05:33N 30°45' W 091°23'  
Track history (hours):
 
Tides and Currents Weather Stations Pressure Air Temp Water Temp Dewpoint Dewpoint Depression Visibility Wind Speed Wind Dir Waves Ship Positions

Mike Weisend

Owner: AEP River Operations LLC, Chesterfield, MO. More information available from US FCC via Universal Licensing System and Coast Guard Vessel Documentation Center.

Last reported at 2015-May-01 14:05 UTC. Time now 2015-May-06 00:22 UTC.
Position N 30°44' W 091°32'.

Length 54 m; draft 3 m.

Type: Towing. MMSI: 367486280.

Date/timePositionNaut miles runAvg speedWind from/ knotsBaromVisibWave heightAir tempDewpointWater temp
2015-May-01 14:05N 30°44' W 091°32'5 2.8
2015-May-01 12:15N 30°45' W 091°25'1 0.9
2015-May-01 11:07N 30°45' W 091°25'2 3.3
2015-May-01 10:33N 30°45' W 091°22'3 3.4
2015-May-01 09:33N 30°42' W 091°21'4 3.8
2015-May-01 08:33N 30°39' W 091°18'3 2.9
2015-May-01 07:33N 30°36' W 091°19'2 2.0
2015-May-01 06:33N 30°34' W 091°17'3 3.0
2015-May-01 05:34N 30°32' W 091°15'1 0.9
2015-May-01 04:33N 30°32' W 091°16'0 0.0
2015-May-01 03:33N 30°32' W 091°16'0 0.0
2015-May-01 02:34N 30°32' W 091°16'0 0.2
2015-May-01 01:33N 30°32' W 091°15'2 1.8
2015-May-01 00:33N 30°31' W 091°17'2 2.4
2015-Apr-30 23:34N 30°31' W 091°14'2 1.7
2015-Apr-30 22:33N 30°31' W 091°12'2 2.5
2015-Apr-30 21:34N 30°29' W 091°12'2 1.7
2015-Apr-30 20:33N 30°27' W 091°12'3 2.7
2015-Apr-30 19:33N 30°24' W 091°12'1 1.2
2015-Apr-30 18:33N 30°23' W 091°13'0 0.1
2015-Apr-30 17:32N 30°23' W 091°13'3 2.6
2015-Apr-30 16:33N 30°21' W 091°15'3 2.0
2015-Apr-30 15:06N 30°19' W 091°12'3 4.3
2015-Apr-30 14:28N 30°17' W 091°11'4 4.2
2015-Apr-30 13:33N 30°13' W 091°09'3 2.9
2015-Apr-30 12:33N 30°13' W 091°06'6 5.2
2015-Apr-30 11:23N 30°07' W 091°02'11 0.6
2015-Apr-29 17:21N 30°17' W 091°09'4 5.4
2015-Apr-29 16:32N 30°19' W 091°13'2 2.0
2015-Apr-29 15:32N 30°21' W 091°12'4 4.2
2015-Apr-29 14:34N 30°25' W 091°12'0 0.1
2015-Apr-29 13:34N 30°25' W 091°12'0 0.0
2015-Apr-29 12:34N 30°25' W 091°12'0 0.0
2015-Apr-29 11:33N 30°25' W 091°12'0 0.0
2015-Apr-29 10:33N 30°25' W 091°12'4 3.9
2015-Apr-29 09:34N 30°29' W 091°12'3 3.3
2015-Apr-29 08:33N 30°30' W 091°15'4 3.5
2015-Apr-29 07:33N 30°34' W 091°15'5 5.5
2015-Apr-29 06:33N 30°39' W 091°18'7 7.5
2015-Apr-29 05:33N 30°45' W 091°23'  

Dump ship's entire track history